In Rescue
 
Open Full Screen Window  High Contrast Mode
Wind Gusting 00 knots
04
November 20, 2019 12:59 AM CST
Present Weather: Mist
Weather Information
Wind Direction
  230 °
Wind Speed
  04 kt (5 mph)
Wind Gust
  00 kt (0 mph)
Altimeter
30.01 in
Visibility
1 1/4 SM
Temperature
01° C
34° F
Dewpoint
01° C
34° F
Humidity
100%
1hr Rain Fall
00.00 in.
24hr Rain Fall
00.18 in.
Sky Condition
Broken @ 1,200 ft
IFR

METAR KFKA 200659Z AUTO 23004KT 1 1/4SM BR BKN012 01/01 A3001 RMK AO2 T00140009

FAA Disclaimer: The data displayed is for advisory purposes only and is not to be used for flight planning or operations.